Time;durP1;ratioP1;P1;durP2;ratioP2;P2;SDS_P1;SDS_P2;PMS_P1;PMS_P2;Temp;Humidity;BMP_temperature;BMP_pressure;BME280_temperature;BME280_humidity;BME280_pressure;Samples;Min_cycle;Max_cycle;Signal;HPM_P1;HPM_P2
2022/10/03 00:00:24;;;;;;;2.70;1.77;;;;;;;14.61;100.00;99901.13;5071484;28;20067;-73
2022/10/03 00:03:14;;;;;;;1.92;1.70;;;;;;;15.32;100.00;100022.44;5071287;28;20056;-74
2022/10/03 00:05:42;;;;;;;2.78;1.92;;;;;;;15.16;100.00;100016.34;5070895;28;20127;-75
2022/10/03 00:08:28;;;;;;;2.88;2.15;;;;;;;15.16;100.00;100013.78;5069801;28;20063;-74
2022/10/03 00:11:26;;;;;;;3.45;2.00;;;;;;;15.28;100.00;100023.47;5039463;28;20040;-73
2022/10/03 00:13:52;;;;;;;3.83;2.15;;;;;;;15.25;100.00;100024.44;5070970;28;20125;-73
2022/10/03 00:16:42;;;;;;;4.05;2.10;;;;;;;15.25;100.00;100015.94;5070620;28;20090;-75
2022/10/03 00:19:16;;;;;;;1.77;1.65;;;;;;;14.95;100.00;100017.34;5071246;28;20033;-74
2022/10/03 00:21:59;;;;;;;3.17;1.83;;;;;;;14.69;100.00;100013.38;5071048;28;20040;-75
2022/10/03 00:24:38;;;;;;;2.97;2.00;;;;;;;14.69;100.00;100003.97;5071163;28;20044;-75
2022/10/03 00:27:25;;;;;;;2.60;1.90;;;;;;;14.27;100.00;99944.44;5071157;28;20032;-73
2022/10/03 00:30:09;;;;;;;5.15;1.80;;;;;;;14.64;100.00;100005.91;5070916;28;20621;-74
2022/10/03 00:32:46;;;;;;;4.47;2.60;;;;;;;14.22;100.00;100014.56;5069815;28;20032;-74
2022/10/03 00:35:30;;;;;;;10.95;3.10;;;;;;;14.16;100.00;100025.06;5070464;28;20406;-73
2022/10/03 00:38:33;;;;;;;3.33;2.50;;;;;;;13.78;100.00;99973.81;5069998;28;20032;-75
2022/10/03 00:41:10;;;;;;;5.38;2.88;;;;;;;14.27;100.00;100022.88;5070887;28;20028;-74
2022/10/03 00:44:00;;;;;;;5.68;2.90;;;;;;;13.68;100.00;99982.72;5069381;28;20379;-73
2022/10/03 00:47:03;;;;;;;5.90;2.50;;;;;;;14.29;100.00;100026.22;5070669;28;20033;-75
2022/10/03 00:49:56;;;;;;;3.30;2.75;;;;;;;14.12;100.00;100024.34;5070593;28;20029;-74
2022/10/03 00:52:45;;;;;;;3.08;2.50;;;;;;;14.09;100.00;100027.03;5070949;28;20041;-75
2022/10/03 00:55:23;;;;;;;4.05;2.47;;;;;;;14.08;100.00;100016.88;5070519;28;20031;-73
2022/10/03 00:58:07;;;;;;;3.00;2.00;;;;;;;13.91;100.00;100013.28;5070944;28;20491;-74
2022/10/03 01:00:34;;;;;;;3.97;2.20;;;;;;;13.67;100.00;99967.44;5069324;28;20063;-75
2022/10/03 01:03:07;;;;;;;3.60;2.28;;;;;;;13.87;100.00;99973.41;5070618;28;20499;-75
2022/10/03 01:05:51;;;;;;;3.97;2.15;;;;;;;14.12;100.00;100013.28;5070470;28;20143;-78
2022/10/03 01:08:48;;;;;;;4.07;2.05;;;;;;;13.66;100.00;99961.53;5069443;28;20068;-74
2022/10/03 01:11:26;;;;;;;3.20;2.38;;;;;;;14.17;100.00;100001.97;5069095;28;20039;-74
2022/10/03 01:14:22;;;;;;;4.78;2.25;;;;;;;13.60;100.00;99986.47;5070776;28;20051;-74
2022/10/03 01:16:57;;;;;;;4.68;2.20;;;;;;;14.36;100.00;99992.63;5070226;28;20031;-74
2022/10/03 01:19:45;;;;;;;5.15;2.17;;;;;;;14.32;100.00;99990.31;5071587;28;20028;-73
2022/10/03 01:22:10;;;;;;;5.82;2.30;;;;;;;13.84;100.00;100009.28;5072153;28;20042;-74
2022/10/03 01:24:45;;;;;;;3.10;2.50;;;;;;;14.27;100.00;99999.84;5074197;28;20040;-75
2022/10/03 01:27:14;;;;;;;3.13;2.28;;;;;;;14.00;100.00;99939.66;5073835;28;20039;-75
2022/10/03 01:30:21;;;;;;;2.92;2.08;;;;;;;14.34;100.00;99993.63;5072731;28;20036;-74
2022/10/03 01:33:01;;;;;;;3.53;2.00;;;;;;;14.10;100.00;99979.28;5074037;28;20051;-73
2022/10/03 01:35:39;;;;;;;2.85;2.53;;;;;;;14.20;100.00;99981.38;5073661;28;20173;-73
2022/10/03 01:38:46;;;;;;;3.72;2.30;;;;;;;14.29;100.00;99996.38;5073647;28;20093;-73
2022/10/03 01:41:50;;;;;;;5.57;2.72;;;;;;;13.93;100.00;99988.50;5060359;28;20044;-74
2022/10/03 01:44:27;;;;;;;5.18;2.70;;;;;;;14.12;100.00;99988.56;5070950;28;20101;-73
2022/10/03 01:47:05;;;;;;;5.53;2.50;;;;;;;14.16;100.00;99989.25;5072316;28;20072;-72
2022/10/03 01:49:42;;;;;;;4.93;2.60;;;;;;;13.77;100.00;99961.06;5073234;28;20024;-73
2022/10/03 01:52:40;;;;;;;4.95;2.50;;;;;;;13.78;100.00;99975.53;5072548;28;20058;-73
2022/10/03 01:55:20;;;;;;;3.83;2.33;;;;;;;13.90;100.00;99927.25;5058629;28;20036;-73
2022/10/03 01:58:12;;;;;;;3.33;2.50;;;;;;;13.95;100.00;99970.53;5073775;28;20108;-73
2022/10/03 02:00:41;;;;;;;;;;;;;;;14.21;100.00;99967.72;5073385;28;20044;-74
2022/10/03 02:03:06;;;;;;;5.45;2.42;;;;;;;14.11;100.00;99966.44;5088927;28;19912;-73
2022/10/03 02:06:19;;;;;;;3.10;2.13;;;;;;;14.29;100.00;99975.06;5073362;28;20047;-73
2022/10/03 02:08:59;;;;;;;6.20;2.55;;;;;;;14.01;100.00;99972.00;5011275;28;20042;-74
2022/10/03 02:11:28;;;;;;;4.70;2.50;;;;;;;13.47;100.00;99926.56;5011079;28;20045;-73
2022/10/03 02:14:24;;;;;;;5.60;2.80;;;;;;;13.87;100.00;99965.75;5047167;28;20072;-73
2022/10/03 02:16:52;;;;;;;4.40;2.60;;;;;;;13.79;100.00;99972.88;5073328;28;20033;-73
2022/10/03 02:19:25;;;;;;;5.55;2.60;;;;;;;13.95;100.00;99916.84;5072575;28;20025;-74
2022/10/03 02:21:54;;;;;;;5.35;2.45;;;;;;;14.01;100.00;99954.09;5072873;28;20035;-73
2022/10/03 02:24:38;;;;;;;4.45;2.53;;;;;;;14.32;100.00;99962.97;5073039;28;20689;-74
2022/10/03 02:27:19;;;;;;;4.93;2.90;;;;;;;14.10;100.00;99966.50;5073425;28;20501;-73
2022/10/03 02:30:09;;;;;;;4.78;2.80;;;;;;;14.12;100.00;99963.00;5072508;28;20031;-75
2022/10/03 02:32:46;;;;;;;4.60;2.72;;;;;;;14.12;100.00;99969.84;5072982;28;20029;-73
2022/10/03 02:35:37;;;;;;;4.22;2.83;;;;;;;13.91;100.00;99923.00;5071818;28;20081;-73
2022/10/03 02:38:16;;;;;;;4.35;2.70;;;;;;;13.96;100.00;99971.38;5072613;28;20037;-74
2022/10/03 02:41:07;;;;;;;4.40;2.60;;;;;;;13.82;100.00;99962.56;5071663;28;20036;-73
2022/10/03 02:44:09;;;;;;;5.85;2.65;;;;;;;13.99;100.00;99961.00;5072442;28;20035;-73
2022/10/03 02:46:58;;;;;;;4.80;2.65;;;;;;;14.05;100.00;99965.84;5071010;28;20153;-76
2022/10/03 02:49:36;;;;;;;4.07;2.60;;;;;;;14.20;100.00;99952.44;5072233;28;20045;-71
2022/10/03 02:52:25;;;;;;;6.32;2.50;;;;;;;14.34;100.00;99963.75;5072715;28;20115;-72
2022/10/03 02:55:06;;;;;;;4.25;2.50;;;;;;;14.03;100.00;99954.88;5071983;28;20028;-73
2022/10/03 02:58:10;;;;;;;4.75;2.78;;;;;;;13.85;100.00;99964.97;5072803;28;20505;-71
2022/10/03 03:01:19;;;;;;;3.33;2.30;;;;;;;14.21;100.00;99951.53;5072032;28;20048;-72
2022/10/03 03:04:15;;;;;;;3.28;2.67;;;;;;;13.76;100.00;99957.69;5049174;28;20040;-73
2022/10/03 03:06:56;;;;;;;5.80;3.50;;;;;;;13.86;100.00;99956.41;5072393;28;20463;-72
2022/10/03 03:09:56;;;;;;;6.33;3.17;;;;;;;13.47;100.00;99968.25;5071554;28;20058;-72
2022/10/03 03:12:43;;;;;;;5.47;2.92;;;;;;;13.86;100.00;99971.72;5069619;28;20123;-72
2022/10/03 03:15:45;;;;;;;4.28;2.90;;;;;;;13.40;100.00;99974.50;5070957;28;20036;-72
2022/10/03 03:18:29;;;;;;;3.55;2.45;;;;;;;13.31;100.00;99966.38;5072076;28;20025;-72
2022/10/03 03:21:11;;;;;;;7.78;3.08;;;;;;;13.11;100.00;99964.59;5071891;28;20031;-72
2022/10/03 03:24:10;;;;;;;5.60;2.92;;;;;;;12.94;100.00;99956.72;5087296;28;20684;-72
2022/10/03 03:27:12;;;;;;;5.82;3.20;;;;;;;12.86;100.00;99957.00;5071511;28;20439;-74
2022/10/03 03:29:44;;;;;;;;;;;;;;;13.10;100.00;99947.63;5072034;28;20021;-71
2022/10/03 03:32:30;;;;;;;6.38;3.00;;;;;;;13.32;100.00;99937.38;5070012;28;19920;-71
2022/10/03 03:35:17;;;;;;;5.25;2.95;;;;;;;13.35;100.00;99943.19;5070545;28;20028;-72
2022/10/03 03:38:24;;;;;;;4.20;2.88;;;;;;;13.30;100.00;99942.56;5069514;28;20028;-72
2022/10/03 03:40:58;;;;;;;6.18;3.47;;;;;;;13.20;100.00;99925.94;5064176;28;20141;-73
2022/10/03 03:43:44;;;;;;;7.45;3.22;;;;;;;13.47;100.00;99944.47;5071511;28;20056;-74
2022/10/03 03:46:19;;;;;;;6.90;3.20;;;;;;;13.77;100.00;99938.91;5071570;28;20040;-73
2022/10/03 03:49:03;;;;;;;8.90;3.10;;;;;;;13.32;100.00;99945.88;5071388;28;20062;-73
2022/10/03 03:51:32;;;;;;;8.38;3.10;;;;;;;13.30;100.00;99937.44;5069996;28;20426;-74
2022/10/03 03:54:03;;;;;;;6.22;3.10;;;;;;;13.37;100.00;99940.59;5071539;28;20102;-72
2022/10/03 03:56:44;;;;;;;10.73;3.40;;;;;;;12.63;100.00;99855.03;5071356;28;20064;-73
2022/10/03 03:59:15;;;;;;;6.03;3.40;;;;;;;13.29;100.00;99912.00;5071100;28;20036;-73
2022/10/03 04:01:40;;;;;;;11.15;3.67;;;;;;;13.18;100.00;99917.50;5071695;28;20025;-73
2022/10/03 04:04:43;;;;;;;10.38;3.97;;;;;;;13.08;100.00;99921.31;5071708;28;20035;-74
2022/10/03 04:07:20;;;;;;;9.35;4.53;;;;;;;12.67;100.00;99855.72;5070047;28;20115;-73
2022/10/03 04:10:04;;;;;;;11.63;4.38;;;;;;;13.43;100.00;99914.81;5071265;28;20418;-75
2022/10/03 04:12:53;;;;;;;11.55;3.53;;;;;;;12.96;100.00;99888.59;5071435;28;20029;-74
2022/10/03 04:15:50;;;;;;;12.55;3.58;;;;;;;13.09;100.00;99910.22;5071292;28;20031;-74
2022/10/03 04:18:58;;;;;;;15.27;4.18;;;;;;;12.72;100.00;99838.50;5049823;28;20041;-74
2022/10/03 04:21:55;;;;;;;13.98;4.10;;;;;;;12.73;100.00;99827.44;5070307;28;20029;-73
2022/10/03 04:24:37;;;;;;;14.57;4.18;;;;;;;13.26;100.00;99887.41;5068875;28;20051;-76
2022/10/03 04:27:23;;;;;;;14.88;4.13;;;;;;;16.25;100.00;99892.13;5071146;28;20036;-72
2022/10/03 04:30:08;;;;;;;9.23;4.30;;;;;;;13.77;100.00;99918.47;5070430;28;20040;-76
2022/10/03 04:32:57;;;;;;;14.90;5.63;;;;;;;13.03;100.00;99908.72;5053376;28;20029;-76
2022/10/03 04:35:47;;;;;;;8.57;4.25;;;;;;;13.03;100.00;99913.00;5050525;28;20025;-75
2022/10/03 04:38:38;;;;;;;10.52;4.95;;;;;;;13.21;100.00;99919.13;5058462;28;20055;-76
2022/10/03 04:41:15;;;;;;;11.50;4.90;;;;;;;12.97;100.00;99921.69;5069185;28;20076;-77
2022/10/03 04:44:03;;;;;;;12.48;4.40;;;;;;;11.87;100.00;99797.56;5070602;28;20067;-75
2022/10/03 04:46:41;;;;;;;6.35;3.80;;;;;;;13.53;100.00;99916.06;5086710;28;20125;-74
2022/10/03 04:49:31;;;;;;;8.30;4.45;;;;;;;14.53;100.00;99859.72;5090827;28;20119;-75
2022/10/03 04:52:39;;;;;;;10.88;5.32;;;;;;;16.02;100.00;99915.59;5089106;28;20031;-74
2022/10/03 04:55:27;;;;;;;13.07;5.70;;;;;;;17.33;100.00;99912.75;5030820;28;20524;-75
2022/10/03 04:58:06;;;;;;;10.85;5.28;;;;;;;17.70;100.00;99927.75;5094023;28;20122;-75
2022/10/03 05:00:47;;;;;;;8.93;4.05;;;;;;;17.05;100.00;99807.31;5094500;28;20499;-74
2022/10/03 05:03:29;;;;;;;7.95;4.53;;;;;;;17.98;100.00;99908.97;5095605;28;20036;-75
2022/10/03 05:06:06;;;;;;;;;;;;;;;18.31;100.00;99919.78;5096574;28;20029;-75
2022/10/03 05:08:48;;;;;;;9.75;4.65;;;;;;;18.97;100.00;99920.81;5095494;28;19919;-76
2022/10/03 05:11:21;;;;;;;9.50;5.60;;;;;;;18.95;99.80;99927.00;5093658;28;20093;-76
2022/10/03 05:14:25;;;;;;;11.73;6.53;;;;;;;19.11;99.35;99934.56;5092883;28;20031;-75
2022/10/03 05:17:26;;;;;;;19.30;7.78;;;;;;;18.74;100.00;99936.88;5093262;28;20028;-76
2022/10/03 05:20:16;;;;;;;12.17;7.40;;;;;;;19.89;91.97;99942.28;5080240;28;20047;-73
2022/10/03 05:22:56;;;;;;;12.15;7.13;;;;;;;19.05;99.01;99944.31;5093130;28;20134;-74
2022/10/03 05:25:45;;;;;;;16.98;6.70;;;;;;;17.07;100.00;99849.16;5094864;28;20051;-73
2022/10/03 05:28:18;;;;;;;12.77;6.88;;;;;;;16.48;100.00;99906.31;5094328;28;20148;-73
2022/10/03 05:30:56;;;;;;;11.00;5.72;;;;;;;16.41;100.00;99900.69;5094524;28;20406;-74
2022/10/03 05:33:37;;;;;;;9.60;6.05;;;;;;;16.67;100.00;99911.31;5094505;28;20105;-74
2022/10/03 05:36:12;;;;;;;12.93;5.68;;;;;;;16.51;100.00;99860.00;5094112;28;20032;-74
2022/10/03 05:39:15;;;;;;;13.63;5.95;;;;;;;16.69;100.00;99915.47;5094841;28;20076;-75
2022/10/03 05:41:52;;;;;;;11.50;5.78;;;;;;;16.54;100.00;99923.97;5094243;28;20039;-75
2022/10/03 05:44:28;;;;;;;9.55;4.22;;;;;;;15.30;100.00;99881.63;5094557;28;20031;-75
2022/10/03 05:50:37;;;;;;;10.00;4.20;;;;;;;15.74;100.00;99924.75;5094034;28;20603;-73
2022/10/03 05:53:05;;;;;;;12.88;4.30;;;;;;;15.90;100.00;99921.34;5094249;28;20047;-75
2022/10/03 05:55:57;;;;;;;11.15;4.75;;;;;;;16.37;100.00;99924.00;5093913;28;20027;-75
2022/10/03 05:58:37;;;;;;;8.85;4.00;;;;;;;16.07;100.00;99935.84;5093880;28;20028;-76
2022/10/03 06:01:24;;;;;;;10.75;3.85;;;;;;;16.07;100.00;99931.56;5108623;28;20078;-76
2022/10/03 06:03:55;;;;;;;8.10;3.70;;;;;;;16.51;100.00;99931.84;5072110;28;20039;-75
2022/10/03 06:06:48;;;;;;;11.38;3.97;;;;;;;16.60;100.00;99927.97;5089392;28;20036;-75
2022/10/03 06:09:29;;;;;;;7.18;3.85;;;;;;;16.32;100.00;99931.13;5073911;28;20056;-74
2022/10/03 06:12:24;;;;;;;10.00;4.03;;;;;;;16.33;100.00;99943.88;5089812;28;20402;-75
2022/10/03 06:14:53;;;;;;;8.48;4.10;;;;;;;16.41;100.00;99943.47;5073613;28;20037;-75
2022/10/03 06:17:28;;;;;;;9.55;4.10;;;;;;;16.47;100.00;99935.47;5089411;28;20032;-75
2022/10/03 06:20:03;;;;;;;16.10;4.22;;;;;;;16.55;100.00;99935.91;5073919;28;20024;-76
2022/10/03 06:22:41;;;;;;;9.10;4.63;;;;;;;16.94;100.00;99931.19;5073118;28;20025;-76
2022/10/03 06:25:25;;;;;;;10.13;4.30;;;;;;;18.04;100.00;99937.69;5073894;28;20048;-75
2022/10/03 06:28:49;;;;;;;11.05;4.72;;;;;;;17.08;100.00;99940.72;5089465;28;20055;-76
2022/10/03 06:31:48;;;;;;;11.20;3.78;;;;;;;17.66;100.00;99946.84;5011141;28;20065;-75
2022/10/03 06:34:24;;;;;;;8.63;3.70;;;;;;;17.55;100.00;99891.81;5011515;28;20176;-75
2022/10/03 06:37:04;;;;;;;9.45;3.50;;;;;;;18.40;100.00;99949.31;5070955;28;20158;-75
2022/10/03 06:40:01;;;;;;;9.18;2.85;;;;;;;18.46;100.00;99936.09;5073449;28;20033;-75
2022/10/03 06:42:46;;;;;;;6.68;2.50;;;;;;;18.42;100.00;99943.13;5056368;28;20537;-74
2022/10/03 06:45:17;;;;;;;5.55;2.17;;;;;;;18.96;100.00;99926.88;5072964;28;20115;-74
2022/10/03 06:48:01;;;;;;;7.95;2.30;;;;;;;19.05;100.00;99917.75;5072853;28;20124;-75
2022/10/03 06:50:53;;;;;;;5.40;2.90;;;;;;;18.81;100.00;99899.53;5087726;28;20111;-74
2022/10/03 06:53:57;;;;;;;2.80;1.90;;;;;;;19.38;100.00;99904.47;5062059;28;20041;-74
2022/10/03 06:56:55;;;;;;;12.05;3.00;;;;;;;19.07;100.00;99908.16;5047359;28;20135;-74
2022/10/03 06:59:39;;;;;;;5.45;2.50;;;;;;;19.66;100.00;99899.16;5072505;28;20036;-75
2022/10/03 07:02:38;;;;;;;5.32;2.38;;;;;;;19.89;100.00;99901.84;5072432;28;20031;-73
2022/10/03 07:05:51;;;;;;;7.63;3.03;;;;;;;20.18;100.00;99907.63;5072391;28;20031;-74
2022/10/03 07:08:28;;;;;;;8.57;2.47;;;;;;;19.48;100.00;99903.75;5043758;28;20068;-73
2022/10/03 07:11:09;;;;;;;4.35;2.28;;;;;;;20.42;100.00;99887.84;5072058;28;20029;-75
2022/10/03 07:13:50;;;;;;;8.10;2.33;;;;;;;20.80;100.00;99894.69;5072412;28;20040;-73
2022/10/03 07:16:17;;;;;;;7.25;2.10;;;;;;;20.71;99.52;99909.91;5071468;28;20033;-73
2022/10/03 07:19:16;;;;;;;7.15;1.95;;;;;;;20.23;97.57;99915.06;5087884;28;20488;-74
2022/10/03 07:22:07;;;;;;;8.43;2.47;;;;;;;20.21;100.00;99912.59;5072474;28;20097;-75
2022/10/03 07:24:44;;;;;;;5.70;2.53;;;;;;;20.08;100.00;99905.75;5072393;28;20048;-75
2022/10/03 07:27:16;;;;;;;7.25;2.65;;;;;;;21.32;98.92;99897.75;5072320;28;20097;-76
2022/10/03 07:29:44;;;;;;;6.68;2.72;;;;;;;20.93;95.06;99903.19;5087624;28;20032;-72
2022/10/03 07:32:51;;;;;;;5.25;2.28;;;;;;;20.83;99.53;99897.03;5071827;28;20035;-74
2022/10/03 07:38:56;;;;;;;6.45;2.30;;;;;;;21.18;91.94;99898.75;5050127;28;20498;-74
2022/10/03 07:41:51;;;;;;;6.47;2.28;;;;;;;21.44;89.17;99899.44;5071459;28;20117;-74
2022/10/03 07:44:34;;;;;;;5.00;2.63;;;;;;;19.98;100.00;99908.13;5071655;28;20028;-76
2022/10/03 07:47:31;;;;;;;9.20;2.70;;;;;;;20.16;100.00;99896.56;5071601;28;20040;-78
2022/10/03 07:50:22;;;;;;;12.00;2.70;;;;;;;20.74;98.81;99898.50;5071626;28;20035;-76
2022/10/03 07:53:21;;;;;;;5.87;2.30;;;;;;;20.39;94.87;99898.41;5071200;28;20024;-75
2022/10/03 07:56:24;;;;;;;7.38;2.70;;;;;;;21.70;93.21;99900.91;5071641;28;20282;-75
2022/10/03 07:59:12;;;;;;;7.30;2.40;;;;;;;20.71;90.17;99845.28;5048961;28;20495;-75
2022/10/03 08:01:57;;;;;;;5.38;2.28;;;;;;;21.61;84.42;99899.00;5087187;28;20036;-77
2022/10/03 08:04:28;;;;;;;8.02;2.80;;;;;;;21.18;83.61;99897.94;5071269;28;20115;-74
2022/10/03 08:07:20;;;;;;;8.45;2.30;;;;;;;21.86;81.82;99898.03;5071268;28;20032;-76
2022/10/03 08:10:16;;;;;;;6.60;2.30;;;;;;;22.46;73.67;99887.31;5062705;28;20040;-75
2022/10/03 08:12:42;;;;;;;5.00;1.90;;;;;;;21.75;84.16;99898.00;5049597;28;20108;-75
2022/10/03 08:15:34;;;;;;;3.22;2.10;;;;;;;21.24;82.13;99895.72;5086751;28;20127;-75
2022/10/03 08:18:27;;;;;;;8.25;2.97;;;;;;;21.18;90.83;99898.75;5071020;28;20467;-75
2022/10/03 08:21:16;;;;;;;6.72;2.65;;;;;;;20.61;91.17;99854.63;5071051;28;20189;-75
2022/10/03 08:23:47;;;;;;;4.15;2.22;;;;;;;20.95;91.87;99898.75;5085860;28;20099;-75
2022/10/03 08:26:26;;;;;;;5.32;1.88;;;;;;;20.19;96.78;99861.97;5070682;28;20406;-75
2022/10/03 08:28:51;;;;;;;9.27;2.40;;;;;;;20.80;89.79;99848.97;5086576;28;20029;-77
2022/10/03 08:31:28;;;;;;;12.82;3.72;;;;;;;20.83;96.26;99897.88;5071216;28;20116;-73
2022/10/03 08:34:14;;;;;;;11.02;3.58;;;;;;;20.86;100.00;99895.03;5070985;28;20068;-76
2022/10/03 08:36:54;;;;;;;6.18;2.22;;;;;;;20.93;90.65;99904.03;5070030;28;20040;-73
2022/10/03 08:39:25;;;;;;;14.73;3.15;;;;;;;20.54;90.01;99899.91;5069353;28;20130;-73
2022/10/03 08:42:14;;;;;;;10.02;2.20;;;;;;;20.54;93.85;99893.94;5070548;28;20033;-73
2022/10/03 08:45:01;;;;;;;8.73;2.50;;;;;;;20.35;95.14;99881.47;5062633;28;20055;-73
2022/10/03 08:47:42;;;;;;;6.60;1.98;;;;;;;21.05;89.96;99902.34;5086427;28;20383;-73
2022/10/03 08:50:29;;;;;;;8.27;2.30;;;;;;;21.28;87.10;99897.16;5071051;28;20513;-73
2022/10/03 08:53:21;;;;;;;9.13;1.80;;;;;;;21.02;88.40;99900.81;5069326;28;20086;-75
2022/10/03 08:55:46;;;;;;;7.00;2.60;;;;;;;20.95;91.66;99911.66;5049157;28;20032;-76
2022/10/03 08:59:01;;;;;;;9.15;3.05;;;;;;;20.62;89.59;99897.63;5086448;28;20450;-73
2022/10/03 09:01:47;;;;;;;8.95;3.50;;;;;;;20.68;93.84;99911.84;5071225;28;20120;-75
2022/10/03 09:04:50;;;;;;;14.13;2.88;;;;;;;21.15;91.69;99908.50;5086665;28;20040;-73
2022/10/03 09:07:41;;;;;;;5.75;2.20;;;;;;;20.71;86.93;99903.91;5082603;28;20087;-74
2022/10/03 09:10:25;;;;;;;5.63;2.00;;;;;;;21.03;86.65;99896.47;5084956;28;20035;-75
2022/10/03 09:12:59;;;;;;;10.57;1.92;;;;;;;20.69;91.92;99893.69;4733054;28;9999881;-74
2022/10/03 09:15:46;;;;;;;6.60;1.83;;;;;;;20.64;91.47;99900.91;5076738;28;20028;-75
2022/10/03 09:18:33;;;;;;;8.55;1.75;;;;;;;20.62;89.17;99894.19;5068564;28;20032;-75
2022/10/03 09:21:11;;;;;;;8.45;1.67;;;;;;;21.11;86.38;99894.97;5068636;28;20667;-74
2022/10/03 09:24:14;;;;;;;4.65;1.60;;;;;;;21.04;83.42;99900.69;5085175;28;20042;-74
2022/10/03 09:27:17;;;;;;;8.30;1.10;;;;;;;21.39;83.60;99896.38;5083915;28;20086;-75
2022/10/03 09:30:15;;;;;;;3.05;1.10;;;;;;;21.45;78.49;99893.34;5083688;28;20410;-74
2022/10/03 09:32:46;;;;;;;6.93;1.05;;;;;;;21.37;81.67;99901.63;5039861;28;20124;-73
2022/10/03 09:35:34;;;;;;;4.25;0.90;;;;;;;21.32;82.69;99895.16;5066466;28;20115;-74
2022/10/03 09:38:05;;;;;;;4.57;1.00;;;;;;;21.35;79.05;99892.38;5049160;28;20066;-74
2022/10/03 09:40:49;;;;;;;3.95;0.90;;;;;;;20.74;83.70;99896.75;5075234;28;20493;-74
2022/10/03 09:43:36;;;;;;;8.88;1.00;;;;;;;21.11;87.08;99910.50;5073362;28;20490;-74
2022/10/03 09:46:36;;;;;;;4.32;1.17;;;;;;;21.12;86.81;99901.78;5074134;28;20102;-73
2022/10/03 09:49:27;;;;;;;5.57;1.05;;;;;;;20.82;88.90;99905.72;5086115;28;20020;-74
2022/10/03 09:51:58;;;;;;;4.50;1.00;;;;;;;20.59;91.62;99908.19;5109282;28;20043;-72
2022/10/03 09:54:33;;;;;;;;;;;;;;;20.63;93.88;99903.63;5094558;28;20028;-72
2022/10/03 09:57:23;;;;;;;1.58;0.50;;;;;;;20.39;88.85;99911.31;5093739;28;19968;-72
2022/10/03 10:00:14;;;;;;;3.13;0.65;;;;;;;20.50;85.59;99905.41;5093815;28;20036;-75
2022/10/03 10:02:52;;;;;;;4.10;0.90;;;;;;;20.74;92.78;99914.84;5092494;28;20039;-75
2022/10/03 10:05:45;;;;;;;2.22;0.65;;;;;;;20.57;99.77;99914.38;5109520;28;20123;-75
2022/10/03 10:08:55;;;;;;;3.28;0.68;;;;;;;20.38;100.00;99909.66;5109469;28;20126;-74
2022/10/03 10:11:29;;;;;;;2.15;0.75;;;;;;;20.07;100.00;99920.41;5069235;28;20036;-74
2022/10/03 10:14:25;;;;;;;1.95;0.47;;;;;;;20.01;100.00;99920.81;5093413;28;20039;-73
2022/10/03 10:17:14;;;;;;;3.05;0.85;;;;;;;19.50;100.00;99917.38;5092890;28;20039;-74
2022/10/03 10:19:45;;;;;;;4.03;0.93;;;;;;;19.70;100.00;99916.91;5093181;28;20059;-73
2022/10/03 10:22:21;;;;;;;1.20;0.60;;;;;;;19.61;100.00;99927.00;5092820;28;20028;-73
2022/10/03 10:25:17;;;;;;;2.17;0.57;;;;;;;19.35;100.00;99931.25;5092760;28;20058;-75
2022/10/03 10:28:00;;;;;;;1.88;0.60;;;;;;;19.19;100.00;99922.03;5093501;28;20032;-74
2022/10/03 10:30:44;;;;;;;5.55;0.90;;;;;;;19.07;100.00;99918.47;5093346;28;20024;-74
2022/10/03 10:33:58;;;;;;;2.08;0.80;;;;;;;19.07;100.00;99912.50;5093351;28;20028;-76
2022/10/03 10:37:02;;;;;;;6.90;0.80;;;;;;;19.07;100.00;99915.91;5074369;28;20581;-74
2022/10/03 10:39:56;;;;;;;1.33;0.65;;;;;;;19.10;100.00;99915.69;5092980;28;20024;-73
2022/10/03 10:42:59;;;;;;;2.08;0.80;;;;;;;19.15;100.00;99916.25;5108549;28;20095;-73
2022/10/03 10:45:37;;;;;;;2.97;0.60;;;;;;;18.98;100.00;99927.63;5092276;28;20401;-73
2022/10/03 10:48:31;;;;;;;3.15;0.60;;;;;;;19.00;100.00;99918.03;5092436;28;20038;-73
2022/10/03 10:51:15;;;;;;;2.50;1.00;;;;;;;19.22;100.00;99920.06;5108039;28;20059;-75
2022/10/03 10:54:08;;;;;;;5.00;0.90;;;;;;;19.17;100.00;99914.41;5092731;28;20059;-74
2022/10/03 10:56:58;;;;;;;2.40;0.82;;;;;;;19.31;100.00;99905.75;5092371;28;20488;-73
2022/10/03 11:00:01;;;;;;;2.38;0.50;;;;;;;18.53;100.00;99855.81;5108505;28;20040;-74
2022/10/03 11:02:45;;;;;;;2.88;0.50;;;;;;;19.40;100.00;99910.34;5108435;28;20092;-74
2022/10/03 11:05:19;;;;;;;3.25;0.57;;;;;;;19.21;100.00;99909.88;5108848;28;20024;-75
2022/10/03 11:08:25;;;;;;;2.35;1.00;;;;;;;19.22;100.00;99903.75;5108112;28;20028;-75
2022/10/03 11:11:00;;;;;;;2.45;0.60;;;;;;;19.48;100.00;99902.94;5092463;28;20059;-74
2022/10/03 11:13:42;;;;;;;2.63;1.10;;;;;;;19.35;100.00;99895.16;5108493;28;20035;-74
2022/10/03 11:16:45;;;;;;;4.18;1.67;;;;;;;19.54;100.00;99880.16;5092556;28;20071;-75
2022/10/03 11:19:29;;;;;;;4.40;1.48;;;;;;;19.72;100.00;99867.78;5092835;28;20127;-75
2022/10/03 11:22:18;;;;;;;3.00;1.30;;;;;;;20.29;100.00;99873.31;5092005;28;20028;-74
2022/10/03 11:25:08;;;;;;;4.25;1.58;;;;;;;20.69;100.00;99862.69;5092558;28;20127;-75
2022/10/03 11:27:52;;;;;;;3.40;1.13;;;;;;;21.07;100.00;99861.69;5091839;28;20028;-76
2022/10/03 11:30:26;;;;;;;3.05;0.73;;;;;;;20.29;100.00;99871.56;5091980;28;20070;-75
2022/10/03 11:33:11;;;;;;;1.40;0.70;;;;;;;20.49;100.00;99852.91;5092174;28;20051;-75
2022/10/03 11:35:51;;;;;;;1.88;0.50;;;;;;;20.64;100.00;99869.91;5092129;28;20074;-74
2022/10/03 11:38:35;;;;;;;2.05;0.45;;;;;;;20.40;100.00;99865.66;5092001;28;20032;-75
2022/10/03 11:41:03;;;;;;;2.15;0.60;;;;;;;21.24;100.00;99874.19;5091911;28;20028;-74
2022/10/03 11:43:42;;;;;;;2.42;0.57;;;;;;;21.70;100.00;99869.03;5107683;28;20391;-74
2022/10/03 11:46:10;;;;;;;2.97;0.70;;;;;;;21.06;100.00;99872.97;5091624;28;20094;-74
2022/10/03 11:48:45;;;;;;;2.78;0.55;;;;;;;20.80;100.00;99879.97;5090974;28;20168;-75
2022/10/03 11:51:45;;;;;;;2.20;0.57;;;;;;;20.58;100.00;99872.94;5091626;28;20102;-74
2022/10/03 11:54:28;;;;;;;2.22;0.82;;;;;;;20.00;100.00;99823.69;5060522;28;20127;-75
2022/10/03 11:57:14;;;;;;;1.05;0.50;;;;;;;19.83;100.00;99865.28;5090045;28;20764;-74
2022/10/03 11:59:59;;;;;;;5.03;0.90;;;;;;;19.97;100.00;99892.72;5091251;28;20032;-73
2022/10/03 12:02:30;;;;;;;3.53;0.80;;;;;;;20.04;100.00;99889.66;5090644;28;20054;-73
2022/10/03 12:05:03;;;;;;;1.23;0.60;;;;;;;19.45;100.00;99828.38;5107075;28;20038;-73
2022/10/03 12:10:45;;;;;;;2.20;0.50;;;;;;;19.79;100.00;99882.72;5091711;28;20047;-73
2022/10/03 12:13:28;;;;;;;1.63;0.60;;;;;;;19.27;100.00;99783.13;5091293;28;20039;-73
2022/10/03 12:15:57;;;;;;;1.65;0.50;;;;;;;19.51;100.00;99817.63;5091155;28;20027;-73
2022/10/03 12:18:41;;;;;;;1.95;0.70;;;;;;;19.76;100.00;99890.69;5091373;28;20024;-74
2022/10/03 12:21:15;;;;;;;1.88;0.60;;;;;;;20.31;100.00;99885.19;5107265;28;21075;-73
2022/10/03 12:24:18;;;;;;;4.53;0.88;;;;;;;20.15;100.00;99887.16;5091317;28;20036;-73
2022/10/03 12:27:11;;;;;;;1.45;0.47;;;;;;;20.00;100.00;99890.78;5091406;28;20070;-72
2022/10/03 12:29:44;;;;;;;1.25;0.50;;;;;;;19.66;100.00;99879.34;5090097;28;20027;-74
2022/10/03 12:32:13;;;;;;;1.02;0.63;;;;;;;19.93;100.00;99886.16;5091150;28;20118;-74
2022/10/03 12:34:56;;;;;;;1.95;0.68;;;;;;;19.91;100.00;99893.97;5106882;28;20035;-73
2022/10/03 12:37:34;;;;;;;0.95;0.60;;;;;;;19.29;100.00;99831.09;5091551;28;20378;-73
2022/10/03 12:40:06;;;;;;;1.02;0.70;;;;;;;19.89;100.00;99898.41;5091249;28;20057;-73
2022/10/03 12:42:46;;;;;;;2.58;0.90;;;;;;;20.88;100.00;99897.53;5090934;28;20027;-73
2022/10/03 12:45:26;;;;;;;3.28;0.80;;;;;;;20.63;100.00;99863.09;5106845;28;20040;-73
2022/10/03 12:48:33;;;;;;;2.47;0.70;;;;;;;21.37;100.00;99893.88;5090164;28;20036;-73
2022/10/03 12:51:20;;;;;;;3.78;1.20;;;;;;;21.69;100.00;99888.09;5090230;28;20040;-74
2022/10/03 12:53:51;;;;;;;1.60;1.00;;;;;;;22.23;100.00;99891.66;5091099;28;20158;-73
2022/10/03 12:56:37;;;;;;;1.48;0.80;;;;;;;22.37;96.38;99889.66;5090712;28;20084;-73
2022/10/03 12:59:22;;;;;;;2.53;0.90;;;;;;;21.83;99.01;99883.53;5106763;28;20089;-74